Time;durP1;ratioP1;P1;durP2;ratioP2;P2;SDS_P1;SDS_P2;PMS_P1;PMS_P2;Temp;Humidity;BMP_temperature;BMP_pressure;BME280_temperature;BME280_humidity;BME280_pressure;Samples;Min_cycle;Max_cycle;Signal;HPM_P1;HPM_P2
2023/04/22 00:00:15;;;;;;;;;;;;;;;9.40;81.11;99140.52;105999;1257;72383;-73
2023/04/22 00:02:45;;;;;;;;;;;;;;;9.39;80.97;99143.73;105831;1257;61304;-75
2023/04/22 00:05:13;;;;;;;;;;;;;;;9.37;80.99;99138.83;105742;1257;61270;-76
2023/04/22 00:07:47;;;;;;;;;;;;;;;9.32;80.83;99136.64;105776;1261;73718;-74
2023/04/22 00:10:15;;;;;;;;;;;;;;;9.28;80.90;99132.40;105788;1257;68393;-71
2023/04/22 00:12:43;;;;;;;;;;;;;;;9.23;80.94;99135.27;105395;1254;72401;-70
2023/04/22 00:15:11;;;;;;;;;;;;;;;9.18;80.88;99136.83;105105;1260;63363;-71
2023/04/22 00:17:39;;;;;;;;;;;;;;;9.14;80.91;99137.36;105130;1260;61930;-70
2023/04/22 00:20:10;;;;;;;;;;;;;;;9.10;81.10;99133.48;105259;1268;74712;-70
2023/04/22 00:22:38;;;;;;;;;;;;;;;9.08;80.86;99135.23;105428;1258;67842;-70
2023/04/22 00:25:06;;;;;;;;;;;;;;;9.09;80.87;99137.16;105266;1257;72290;-72
2023/04/22 00:27:35;;;;;;;;;;;;;;;9.10;80.39;99137.89;105860;1260;61334;-71
2023/04/22 00:30:03;;;;;;;;;;;;;;;9.14;80.24;99138.08;105735;1256;61352;-73
2023/04/22 00:32:31;;;;;;;;;;;;;;;9.15;80.12;99148.61;105722;1260;74372;-71
2023/04/22 00:34:59;;;;;;;;;;;;;;;9.13;79.98;99154.91;105539;1256;68883;-71
2023/04/22 00:37:28;;;;;;;;;;;;;;;9.10;79.66;99158.48;105796;1257;73498;-73
2023/04/22 00:39:56;;;;;;;;;;;;;;;9.06;79.28;99155.76;105753;1257;61247;-71
2023/04/22 00:42:25;;;;;;;;;;;;;;;9.02;79.13;99154.95;105236;1257;61255;-71
2023/04/22 00:44:53;;;;;;;;;;;;;;;8.99;78.70;99155.99;105352;1259;75940;-71
2023/04/22 00:47:25;;;;;;;;;;;;;;;8.96;78.69;99155.45;105312;1261;66457;-71
2023/04/22 00:49:54;;;;;;;;;;;;;;;8.96;78.56;99154.32;105215;1260;71387;-71
2023/04/22 00:52:21;;;;;;;;;;;;;;;8.96;78.24;99157.21;105103;1261;62080;-71
2023/04/22 00:54:50;;;;;;;;;;;;;;;8.96;78.21;99155.17;105388;1260;61193;-72
2023/04/22 00:57:20;;;;;;;;;;;;;;;8.96;78.03;99157.05;105801;1260;76518;-72
2023/04/22 00:59:49;;;;;;;;;;;;;;;8.94;77.63;99154.81;105742;1260;69418;-71
2023/04/22 01:02:18;;;;;;;;;;;;;;;8.93;77.28;99154.10;105653;1260;74357;-71
2023/04/22 01:04:46;;;;;;;;;;;;;;;8.92;76.94;99153.30;107890;1258;61283;-70
2023/04/22 01:07:14;;;;;;;;;;;;;;;8.91;76.36;99150.84;105267;1258;61318;-71
2023/04/22 01:09:42;;;;;;;;;;;;;;;8.90;76.11;99150.70;105381;1257;577966;-72
2023/04/22 01:12:10;;;;;;;;;;;;;;;8.89;75.89;99155.79;105832;1261;68499;-72
2023/04/22 01:14:38;;;;;;;;;;;;;;;8.88;75.66;99155.98;105683;1256;72685;-71
2023/04/22 01:17:08;;;;;;;;;;;;;;;8.90;75.32;99156.92;105598;1260;62333;-72
2023/04/22 01:19:37;;;;;;;;;;;;;;;8.92;74.67;99156.58;105412;1260;61997;-71
2023/04/22 01:22:06;;;;;;;;;;;;;;;8.93;74.72;99157.06;105099;1259;75087;-72
2023/04/22 01:24:35;;;;;;;;;;;;;;;8.93;74.29;99155.34;105762;1260;67537;-70
2023/04/22 01:27:03;;;;;;;;;;;;;;;8.91;73.89;99155.45;105741;1257;74043;-71
2023/04/22 01:29:32;;;;;;;;;;;;;;;8.90;73.73;99154.98;105653;1257;61726;-71
2023/04/22 01:32:01;;;;;;;;;;;;;;;8.86;73.55;99153.24;105569;1258;61296;-72
2023/04/22 01:34:30;;;;;;;;;;;;;;;8.82;73.74;99155.23;105444;1258;74429;-71
2023/04/22 01:36:59;;;;;;;;;;;;;;;8.77;73.65;99158.88;105599;1257;69447;-71
2023/04/22 01:39:28;;;;;;;;;;;;;;;8.72;73.49;99156.95;105708;1260;73446;-71
2023/04/22 01:41:57;;;;;;;;;;;;;;;8.68;73.35;99156.58;105793;1259;61224;-72
2023/04/22 01:44:25;;;;;;;;;;;;;;;8.65;72.88;99157.33;105573;1258;61288;-71
2023/04/22 01:46:55;;;;;;;;;;;;;;;8.62;72.65;99155.27;105637;1257;74081;-70
2023/04/22 01:49:23;;;;;;;;;;;;;;;8.60;72.53;99156.05;105669;1260;67068;-70
2023/04/22 01:51:51;;;;;;;;;;;;;;;8.60;72.02;99153.63;105566;1260;72308;-72
2023/04/22 01:54:20;;;;;;;;;;;;;;;8.62;72.18;99156.40;105758;1254;61365;-71
2023/04/22 01:56:51;;;;;;;;;;;;;;;8.65;72.03;99159.80;105530;1261;61305;-71
2023/04/22 01:59:20;;;;;;;;;;;;;;;8.65;71.83;99157.12;105681;1257;74307;-71
2023/04/22 02:01:49;;;;;;;;;;;;;;;8.66;71.17;99162.77;105696;1258;68202;-70
2023/04/22 02:04:17;;;;;;;;;;;;;;;8.67;70.75;99160.73;105759;1260;74497;-71
2023/04/22 02:06:45;;;;;;;;;;;;;;;8.65;70.66;99159.87;105678;1257;61251;-71
2023/04/22 02:09:13;;;;;;;;;;;;;;;8.62;70.99;99166.31;105838;1254;62106;-70
2023/04/22 02:11:42;;;;;;;;;;;;;;;8.59;71.08;99169.86;105879;1255;75211;-71
2023/04/22 02:14:10;;;;;;;;;;;;;;;8.56;70.94;99165.80;105740;1261;67861;-70
2023/04/22 02:16:39;;;;;;;;;;;;;;;8.52;71.37;99170.59;105613;1256;72871;-72
2023/04/22 02:19:07;;;;;;;;;;;;;;;8.47;71.26;99171.59;105748;1257;61384;-70
2023/04/22 02:21:35;;;;;;;;;;;;;;;8.43;71.46;99173.52;105753;1255;61260;-71
2023/04/22 02:24:03;;;;;;;;;;;;;;;8.39;71.13;99175.08;105764;1260;75142;-72
2023/04/22 02:26:31;;;;;;;;;;;;;;;8.37;71.20;99177.79;105819;1258;68573;-71
2023/04/22 02:29:00;;;;;;;;;;;;;;;8.34;71.22;99175.06;105857;1258;73043;-72
2023/04/22 02:31:28;;;;;;;;;;;;;;;8.30;71.40;99175.31;105771;1256;61285;-71
2023/04/22 02:33:56;;;;;;;;;;;;;;;8.26;71.40;99169.72;105650;1260;61234;-70
2023/04/22 02:36:26;;;;;;;;;;;;;;;8.22;71.45;99167.59;105781;1260;74684;-70
2023/04/22 02:38:55;;;;;;;;;;;;;;;8.21;71.35;99177.48;105837;1256;67977;-70
2023/04/22 02:41:23;;;;;;;;;;;;;;;8.21;71.18;99175.66;105271;1257;71699;-70
2023/04/22 02:43:51;;;;;;;;;;;;;;;8.22;70.95;99178.84;105094;1257;61368;-70
2023/04/22 02:46:19;;;;;;;;;;;;;;;8.21;70.77;99178.45;105452;1255;61931;-70
2023/04/22 02:48:48;;;;;;;;;;;;;;;8.18;70.57;99176.16;105261;1260;74714;-70
2023/04/22 02:51:16;;;;;;;;;;;;;;;8.15;70.67;99172.58;105456;1256;68862;-70
2023/04/22 02:53:44;;;;;;;;;;;;;;;8.13;70.50;99173.83;105110;1258;71513;-70
2023/04/22 02:56:12;;;;;;;;;;;;;;;8.09;70.73;99173.77;105638;1257;61271;-71
2023/04/22 02:58:41;;;;;;;;;;;;;;;8.05;70.71;99178.96;105739;1258;61271;-71
2023/04/22 03:01:09;;;;;;;;;;;;;;;8.01;70.92;99175.70;105525;1256;73182;-71
2023/04/22 03:03:37;;;;;;;;;;;;;;;7.97;70.94;99178.41;105652;1254;68705;-71
2023/04/22 03:06:06;;;;;;;;;;;;;;;7.93;71.04;99182.47;105802;1258;71326;-70
2023/04/22 03:08:34;;;;;;;;;;;;;;;7.88;71.13;99180.42;105542;1260;61388;-70
2023/04/22 03:11:03;;;;;;;;;;;;;;;7.85;71.25;99183.28;105653;1256;60152;-69
2023/04/22 03:13:31;;;;;;;;;;;;;;;7.82;71.31;99187.14;105223;1258;74898;-70
2023/04/22 03:15:59;;;;;;;;;;;;;;;7.78;71.34;99191.69;105595;1257;67772;-70
2023/04/22 03:18:28;;;;;;;;;;;;;;;7.75;71.56;99190.86;105122;1257;72375;-70
2023/04/22 03:20:56;;;;;;;;;;;;;;;7.72;71.57;99195.34;105536;1256;61382;-70
2023/04/22 03:23:24;;;;;;;;;;;;;;;7.71;71.58;99200.77;105777;1256;61182;-70
2023/04/22 03:25:52;;;;;;;;;;;;;;;7.69;71.77;99200.05;105691;1256;73812;-70
2023/04/22 03:28:20;;;;;;;;;;;;;;;7.70;71.69;99197.75;105331;1260;69129;-71
2023/04/22 03:30:49;;;;;;;;;;;;;;;7.71;71.58;99198.75;105170;1260;74209;-69
2023/04/22 03:33:17;;;;;;;;;;;;;;;7.74;71.46;99199.65;105366;1256;61145;-71
2023/04/22 03:35:53;;;;;;;;;;;;;;;7.78;70.98;99207.73;105442;1256;61266;-70
2023/04/22 03:38:22;;;;;;;;;;;;;;;7.81;71.05;99206.13;105321;1255;75469;-69
2023/04/22 03:40:50;;;;;;;;;;;;;;;7.82;70.78;99210.58;105377;1256;69458;-70
2023/04/22 03:43:26;;;;;;;;;;;;;;;7.82;70.59;99217.60;105302;1256;72394;-69
2023/04/22 03:45:59;;;;;;;;;;;;;;;7.82;70.22;99216.10;105317;1256;61119;-69
2023/04/22 03:48:34;;;;;;;;;;;;;;;7.81;70.14;99215.62;105367;1255;61230;-70
2023/04/22 03:51:06;;;;;;;;;;;;;;;7.81;70.24;99223.70;105291;1257;73200;-70
2023/04/22 03:53:36;;;;;;;;;;;;;;;7.81;70.15;99226.10;105349;1256;68748;-70
2023/04/22 03:56:04;;;;;;;;;;;;;;;7.81;70.11;99226.95;105154;1260;73722;-69
2023/04/22 03:58:35;;;;;;;;;;;;;;;7.81;69.91;99227.98;105421;1260;61274;-71
2023/04/22 04:01:06;;;;;;;;;;;;;;;7.82;69.72;99232.01;105184;1256;61353;-69
2023/04/22 04:03:35;;;;;;;;;;;;;;;7.84;69.63;99231.08;105271;1257;74186;-70
2023/04/22 04:06:04;;;;;;;;;;;;;;;7.86;69.42;99233.14;105367;1255;69136;-71
2023/04/22 04:08:33;;;;;;;;;;;;;;;7.87;69.19;99234.48;105328;1260;73124;-69
2023/04/22 04:11:01;;;;;;;;;;;;;;;7.89;68.74;99231.65;105553;1256;61471;-71
2023/04/22 04:13:31;;;;;;;;;;;;;;;7.93;68.90;99234.73;105399;1256;61746;-70
2023/04/22 04:16:19;;;;;;;;;;;;;;;7.96;68.67;99238.42;105320;1259;74228;-71
2023/04/22 04:18:52;;;;;;;;;;;;;;;7.99;68.62;99238.70;105709;1260;68176;-70
2023/04/22 04:21:20;;;;;;;;;;;;;;;8.02;68.51;99244.14;105789;1256;73624;-68
2023/04/22 04:23:50;;;;;;;;;;;;;;;8.05;68.54;99247.73;105103;1261;61280;-69
2023/04/22 04:26:22;;;;;;;;;;;;;;;8.08;68.39;99252.02;105364;1254;61362;-71
2023/04/22 04:28:54;;;;;;;;;;;;;;;8.13;68.04;99255.63;105722;1260;74881;-71
2023/04/22 04:31:23;;;;;;;;;;;;;;;8.17;67.63;99261.85;105249;1260;67644;-71
2023/04/22 04:33:52;;;;;;;;;;;;;;;8.22;67.62;99262.59;105231;1256;72624;-70
2023/04/22 04:36:20;;;;;;;;;;;;;;;8.27;67.49;99268.77;105365;1256;61304;-70
2023/04/22 04:38:50;;;;;;;;;;;;;;;8.33;67.30;99265.77;105702;1260;61433;-70
2023/04/22 04:41:22;;;;;;;;;;;;;;;8.38;67.11;99264.13;105345;1259;75486;-70
2023/04/22 04:43:50;;;;;;;;;;;;;;;8.43;66.81;99270.09;105753;1256;66892;-69
2023/04/22 04:46:28;;;;;;;;;;;;;;;8.49;66.66;99271.64;105757;1256;73038;-68
2023/04/22 04:48:57;;;;;;;;;;;;;;;8.54;66.37;99274.33;105783;1260;61194;-68
2023/04/22 04:51:26;;;;;;;;;;;;;;;8.59;65.23;99273.33;105327;1256;61774;-70
2023/04/22 04:53:57;;;;;;;;;;;;;;;8.66;64.69;99271.60;105740;1257;75959;-70
2023/04/22 04:56:26;;;;;;;;;;;;;;;8.73;64.48;99275.66;105815;1260;68615;-69
2023/04/22 04:58:55;;;;;;;;;;;;;;;8.80;63.99;99276.23;105339;1260;72354;-69
2023/04/22 05:01:25;;;;;;;;;;;;;;;8.87;63.90;99274.34;105728;1260;61199;-69
2023/04/22 05:03:54;;;;;;;;;;;;;;;8.94;64.13;99275.34;105437;1256;61749;-69
2023/04/22 05:06:22;;;;;;;;;;;;;;;9.01;63.63;99275.86;105255;1259;75572;-70
2023/04/22 05:08:58;;;;;;;;;;;;;;;9.09;62.24;99277.26;105254;1258;69112;-69
2023/04/22 05:11:26;;;;;;;;;;;;;;;9.17;62.21;99276.70;105346;1260;72407;-69
2023/04/22 05:13:56;;;;;;;;;;;;;;;9.26;61.93;99275.30;105360;1254;62866;-69
2023/04/22 05:16:31;;;;;;;;;;;;;;;9.33;61.34;99272.59;105405;1254;61581;-70
2023/04/22 05:19:00;;;;;;;;;;;;;;;9.41;61.22;99278.15;105465;1254;74627;-68
2023/04/22 05:21:30;;;;;;;;;;;;;;;9.48;60.47;99286.17;105431;1259;67953;-71
2023/04/22 05:23:58;;;;;;;;;;;;;;;9.55;59.76;99286.62;105251;1256;74513;-71
2023/04/22 05:26:27;;;;;;;;;;;;;;;9.60;58.95;99287.86;105229;1256;61282;-69
2023/04/22 05:28:55;;;;;;;;;;;;;;;9.66;59.14;99285.92;105744;1258;63790;-69
2023/04/22 05:31:23;;;;;;;;;;;;;;;9.72;58.76;99284.04;105126;1261;76161;-70
2023/04/22 05:33:51;;;;;;;;;;;;;;;9.78;58.85;99288.02;105258;1256;68811;-70
2023/04/22 05:36:20;;;;;;;;;;;;;;;9.84;59.02;99287.98;105360;1260;73576;-68
2023/04/22 05:38:48;;;;;;;;;;;;;;;9.90;58.80;99289.75;105155;1260;61311;-68
2023/04/22 05:41:16;;;;;;;;;;;;;;;9.96;58.43;99287.01;105370;1256;61238;-71
2023/04/22 05:43:45;;;;;;;;;;;;;;;10.02;58.88;99290.08;105573;1256;74545;-72
2023/04/22 05:46:16;;;;;;;;;;;;;;;10.07;59.05;99285.02;105125;1254;69236;-70
2023/04/22 05:48:45;;;;;;;;;;;;;;;10.13;58.98;99284.05;105446;1256;72417;-69
2023/04/22 05:51:36;;;;;;;;;;;;;;;10.20;58.12;99289.55;105251;1256;62019;-68
2023/04/22 05:54:04;;;;;;;;;;;;;;;10.27;57.11;99292.93;105237;1257;62393;-69
2023/04/22 05:56:32;;;;;;;;;;;;;;;10.33;56.46;99288.09;105109;1256;75937;-71
2023/04/22 05:59:01;;;;;;;;;;;;;;;10.40;56.56;99287.49;105748;1260;68469;-69
2023/04/22 06:01:29;;;;;;;;;;;;;;;10.47;56.33;99293.89;105444;1257;74308;-68
2023/04/22 06:04:04;;;;;;;;;;;;;;;10.56;56.41;99295.71;105466;1256;61978;-69
2023/04/22 06:06:32;;;;;;;;;;;;;;;10.64;56.34;99294.42;105425;1256;61296;-72
2023/04/22 06:09:00;;;;;;;;;;;;;;;10.72;56.33;99296.58;105041;1256;73274;-71
2023/04/22 06:11:29;;;;;;;;;;;;;;;10.79;56.23;99297.59;105348;1256;66647;-71
2023/04/22 06:13:57;;;;;;;;;;;;;;;10.88;56.13;99299.09;104974;1256;72051;-67
2023/04/22 06:16:25;;;;;;;;;;;;;;;10.97;55.77;99300.52;105322;1260;61281;-71
2023/04/22 06:18:53;;;;;;;;;;;;;;;11.06;55.34;99299.88;105586;1257;61462;-70
2023/04/22 06:21:22;;;;;;;;;;;;;;;11.14;55.58;99303.64;105560;1260;75465;-70
2023/04/22 06:23:50;;;;;;;;;;;;;;;11.23;56.21;99301.23;105607;1256;69058;-69
2023/04/22 06:26:18;;;;;;;;;;;;;;;11.31;56.21;99304.23;105619;1256;72306;-68
2023/04/22 06:28:49;;;;;;;;;;;;;;;11.40;56.17;99303.82;105219;1254;61340;-69
2023/04/22 06:31:19;;;;;;;;;;;;;;;11.48;55.95;99302.73;105381;1255;61937;-69
2023/04/22 06:33:48;;;;;;;;;;;;;;;11.57;55.20;99307.33;105414;1259;75642;-70
2023/04/22 06:36:17;;;;;;;;;;;;;;;11.65;54.91;99311.77;105289;1256;68012;-70
2023/04/22 06:38:50;;;;;;;;;;;;;;;11.74;55.16;99312.29;105218;1255;72776;-71
2023/04/22 06:41:43;;;;;;;;;;;;;;;11.84;54.92;99314.91;104855;1257;61285;-69
2023/04/22 06:44:40;;;;;;;;;;;;;;;11.95;53.91;99316.05;105457;1256;61548;-73
2023/04/22 06:47:32;;;;;;;;;;;;;;;12.04;53.13;99319.78;105624;1260;76569;-72
2023/04/22 06:50:14;;;;;;;;;;;;;;;12.13;53.80;99322.59;105589;1256;68390;-69
2023/04/22 06:52:50;;;;;;;;;;;;;;;12.25;54.20;99334.34;105271;1256;74427;-69
2023/04/22 06:55:18;;;;;;;;;;;;;;;12.35;53.51;99329.39;105312;1260;61454;-68
2023/04/22 06:57:46;;;;;;;;;;;;;;;12.46;53.09;99329.82;105888;1257;61685;-69
2023/04/22 07:00:15;;;;;;;;;;;;;;;12.56;52.01;99330.02;105102;1261;75170;-71
2023/04/22 07:02:43;;;;;;;;;;;;;;;12.63;50.98;99331.41;105243;1256;68244;-71
2023/04/22 07:05:11;;;;;;;;;;;;;;;12.69;50.91;99334.17;105276;1256;73412;-69
2023/04/22 07:07:40;;;;;;;;;;;;;;;12.76;50.24;99332.59;105282;1256;61344;-70
2023/04/22 07:10:10;;;;;;;;;;;;;;;12.83;49.55;99334.29;105285;1257;61395;-70
2023/04/22 07:12:41;;;;;;;;;;;;;;;12.87;48.99;99334.83;105718;1254;74850;-69
2023/04/22 07:15:10;;;;;;;;;;;;;;;12.92;49.36;99335.52;105504;1254;68961;-71
2023/04/22 07:17:38;;;;;;;;;;;;;;;13.00;49.96;99337.08;105419;1259;74175;-69
2023/04/22 07:20:06;;;;;;;;;;;;;;;13.10;50.08;99334.95;105356;1256;61397;-68
2023/04/22 07:22:34;;;;;;;;;;;;;;;13.21;50.43;99339.52;105141;1256;61102;-69
2023/04/22 07:25:03;;;;;;;;;;;;;;;13.32;49.74;99346.83;105246;1256;76335;-69
2023/04/22 07:27:31;;;;;;;;;;;;;;;13.41;48.96;99342.46;105242;1256;69755;-69
2023/04/22 07:29:59;;;;;;;;;;;;;;;13.50;48.70;99341.73;105266;1260;74506;-70
2023/04/22 07:32:27;;;;;;;;;;;;;;;13.58;48.65;99340.66;105329;1254;61324;-70
2023/04/22 07:34:55;;;;;;;;;;;;;;;13.67;48.34;99336.83;105857;1256;61277;-71
2023/04/22 07:37:23;;;;;;;;;;;;;;;13.77;47.78;99337.42;105371;1256;76255;-69
2023/04/22 07:39:51;;;;;;;;;;;;;;;13.86;47.57;99346.45;105827;1256;67542;-68
2023/04/22 07:42:19;;;;;;;;;;;;;;;13.95;47.31;99346.83;105099;1260;74206;-69
2023/04/22 07:44:48;;;;;;;;;;;;;;;14.04;47.14;99347.70;105747;1256;62000;-69
2023/04/22 07:47:16;;;;;;;;;;;;;;;14.12;47.18;99350.13;105878;1256;61354;-72
2023/04/22 07:49:44;;;;;;;;;;;;;;;14.21;46.66;99352.39;105636;1260;76546;-69
2023/04/22 07:52:12;;;;;;;;;;;;;;;14.29;46.26;99355.73;105195;1254;68833;-69
2023/04/22 07:54:40;;;;;;;;;;;;;;;14.39;46.06;99356.11;105294;1259;74290;-70
2023/04/22 07:57:08;;;;;;;;;;;;;;;14.46;45.82;99354.44;105171;1256;62228;-68
2023/04/22 07:59:37;;;;;;;;;;;;;;;14.49;45.60;99355.16;105324;1256;61293;-72
2023/04/22 08:02:06;;;;;;;;;;;;;;;14.53;45.24;99355.67;105362;1260;76512;-70
2023/04/22 08:04:35;;;;;;;;;;;;;;;14.57;45.09;99356.79;105426;1256;67151;-73
2023/04/22 08:07:04;;;;;;;;;;;;;;;14.63;45.24;99356.25;105674;1261;73047;-71
2023/04/22 08:09:52;;;;;;;;;;;;;;;14.71;44.67;99357.67;105632;1258;61389;-71
2023/04/22 08:12:21;;;;;;;;;;;;;;;14.72;43.61;99363.15;105822;1258;61383;-71
2023/04/22 08:14:49;;;;;;;;;;;;;;;14.72;43.88;99362.13;105544;1260;76255;-70
2023/04/22 08:17:20;;;;;;;;;;;;;;;14.71;44.19;99364.08;105108;1259;66439;-70
2023/04/22 08:19:49;;;;;;;;;;;;;;;14.74;43.83;99366.36;105283;1256;74045;-71
2023/04/22 08:22:17;;;;;;;;;;;;;;;14.79;43.90;99362.70;105211;1259;61393;-74
2023/04/22 08:24:45;;;;;;;;;;;;;;;14.85;44.04;99367.25;105661;1261;61245;-72
2023/04/22 08:27:14;;;;;;;;;;;;;;;14.86;43.51;99369.83;105646;1256;76736;-73
2023/04/22 08:29:42;;;;;;;;;;;;;;;14.92;43.28;99369.99;105911;1256;66908;-69
2023/04/22 08:32:10;;;;;;;;;;;;;;;14.99;43.40;99372.37;105272;1260;74277;-71
2023/04/22 08:34:38;;;;;;;;;;;;;;;15.07;42.73;99374.77;105288;1256;63398;-70
2023/04/22 08:37:07;;;;;;;;;;;;;;;15.12;41.50;99372.38;105489;1257;63206;-73
2023/04/22 08:39:36;;;;;;;;;;;;;;;15.09;40.87;99372.04;105428;1259;76531;-72
2023/04/22 08:42:04;;;;;;;;;;;;;;;15.08;40.68;99369.66;105778;1256;67582;-70
2023/04/22 08:44:33;;;;;;;;;;;;;;;15.11;41.12;99364.11;105756;1255;74271;-72
2023/04/22 08:47:02;;;;;;;;;;;;;;;15.16;40.91;99371.74;105263;1256;61238;-70
2023/04/22 08:49:31;;;;;;;;;;;;;;;15.24;41.16;99364.07;105843;1254;61740;-68
2023/04/22 08:51:59;;;;;;;;;;;;;;;15.34;41.22;99366.23;105182;1258;75382;-68
2023/04/22 08:54:27;;;;;;;;;;;;;;;15.42;40.21;99365.55;105032;1256;69568;-71
2023/04/22 08:56:55;;;;;;;;;;;;;;;15.46;39.84;99365.11;105282;1256;74205;-73
2023/04/22 08:59:24;;;;;;;;;;;;;;;15.48;39.19;99370.47;105376;1256;61286;-71
2023/04/22 09:01:55;;;;;;;;;;;;;;;15.50;39.02;99368.05;105691;1256;61691;-71
2023/04/22 09:04:23;;;;;;;;;;;;;;;15.54;38.77;99365.86;105498;1260;75553;-70
2023/04/22 09:06:51;;;;;;;;;;;;;;;15.60;39.03;99363.14;105391;1259;66689;-70
2023/04/22 09:09:19;;;;;;;;;;;;;;;15.69;38.64;99369.90;105589;1256;72360;-70
2023/04/22 09:11:48;;;;;;;;;;;;;;;15.80;37.72;99372.23;105278;1254;61256;-70
2023/04/22 09:14:16;;;;;;;;;;;;;;;15.90;37.08;99373.63;105337;1256;61249;-72
2023/04/22 09:16:47;;;;;;;;;;;;;;;15.96;36.68;99376.32;105262;1260;74806;-69
2023/04/22 09:19:16;;;;;;;;;;;;;;;15.99;36.03;99368.19;105374;1256;69214;-71
2023/04/22 09:21:43;;;;;;;;;;;;;;;16.04;35.91;99365.29;105410;1256;73528;-71
2023/04/22 09:24:15;;;;;;;;;;;;;;;16.11;35.73;99361.55;105235;1256;61244;-71
2023/04/22 09:26:43;;;;;;;;;;;;;;;16.17;35.71;99359.20;105206;1256;61243;-70
2023/04/22 09:29:14;;;;;;;;;;;;;;;16.23;35.79;99364.20;105127;1260;76230;-68
2023/04/22 09:31:51;;;;;;;;;;;;;;;16.27;34.63;99361.52;105289;1256;67713;-68
2023/04/22 09:34:20;;;;;;;;;;;;;;;16.33;34.90;99360.14;105360;1260;73360;-69
2023/04/22 09:36:49;;;;;;;;;;;;;;;16.41;34.00;99362.29;105130;1261;61385;-69
2023/04/22 09:39:17;;;;;;;;;;;;;;;16.51;33.39;99354.69;105286;1261;61179;-69
2023/04/22 09:41:45;;;;;;;;;;;;;;;16.59;32.90;99351.65;105430;1260;76451;-71
2023/04/22 09:44:14;;;;;;;;;;;;;;;16.60;33.39;99353.27;105179;1256;69547;-70
2023/04/22 09:46:42;;;;;;;;;;;;;;;16.60;33.81;99358.00;105157;1256;72532;-69
2023/04/22 09:49:10;;;;;;;;;;;;;;;16.58;33.19;99360.67;105277;1256;61277;-69
2023/04/22 09:51:39;;;;;;;;;;;;;;;16.59;32.87;99363.54;105344;1256;61312;-69
2023/04/22 09:54:10;;;;;;;;;;;;;;;16.62;32.69;99358.83;105401;1260;75236;-69
2023/04/22 09:56:45;;;;;;;;;;;;;;;16.67;32.09;99361.84;105306;1260;69484;-68
2023/04/22 09:59:23;;;;;;;;;;;;;;;16.67;32.28;99357.55;105288;1260;73658;-68
2023/04/22 10:01:52;;;;;;;;;;;;;;;16.72;32.88;99356.73;105180;1256;61252;-67
2023/04/22 10:04:20;;;;;;;;;;;;;;;16.76;32.70;99364.28;105184;1256;61665;-70
2023/04/22 10:06:48;;;;;;;;;;;;;;;16.77;32.78;99371.17;105380;1260;74348;-70
2023/04/22 10:09:18;;;;;;;;;;;;;;;16.75;32.55;99369.69;105232;1255;68784;-68
2023/04/22 10:11:47;;;;;;;;;;;;;;;16.73;32.59;99370.31;105337;1260;72299;-69
2023/04/22 10:14:15;;;;;;;;;;;;;;;16.74;32.59;99371.82;105276;1256;61426;-71
2023/04/22 10:16:45;;;;;;;;;;;;;;;16.76;32.05;99369.99;105214;1256;61232;-69
2023/04/22 10:19:14;;;;;;;;;;;;;;;16.84;31.91;99370.61;105132;1260;76082;-70
2023/04/22 10:21:43;;;;;;;;;;;;;;;16.91;32.18;99366.14;105188;1256;68605;-68
2023/04/22 10:24:16;;;;;;;;;;;;;;;16.99;31.89;99364.56;105319;1260;72951;-69
2023/04/22 10:26:48;;;;;;;;;;;;;;;17.06;31.59;99365.80;105327;1256;61364;-71
2023/04/22 10:29:17;;;;;;;;;;;;;;;17.12;31.57;99360.60;105503;1259;61243;-68
2023/04/22 10:32:14;;;;;;;;;;;;;;;17.16;30.46;99369.10;105352;1255;75393;-71
2023/04/22 10:34:43;;;;;;;;;;;;;;;17.16;30.09;99366.00;105214;1261;69569;-71
2023/04/22 10:37:12;;;;;;;;;;;;;;;17.15;29.99;99364.89;105252;1256;74614;-73
2023/04/22 10:39:41;;;;;;;;;;;;;;;17.13;30.01;99367.34;105256;1257;61262;-69
2023/04/22 10:42:10;;;;;;;;;;;;;;;17.15;30.24;99373.36;105394;1258;61179;-69
2023/04/22 10:44:45;;;;;;;;;;;;;;;17.16;29.55;99369.27;105323;1257;74517;-68
2023/04/22 10:47:33;;;;;;;;;;;;;;;17.19;29.60;99375.88;105083;1259;67483;-71
2023/04/22 10:50:21;;;;;;;;;;;;;;;17.21;29.51;99374.66;105840;1259;74216;-76
2023/04/22 10:52:56;;;;;;;;;;;;;;;17.25;29.64;99373.71;105840;1256;62250;-75
2023/04/22 10:55:24;;;;;;;;;;;;;;;17.25;29.19;99369.96;105605;1256;61730;-72
2023/04/22 10:57:54;;;;;;;;;;;;;;;17.21;28.72;99372.95;105407;1259;76558;-80
2023/04/22 11:00:24;;;;;;;;;;;;;;;17.16;29.38;99371.59;105758;1260;68678;-77
2023/04/22 11:03:04;;;;;;;;;;;;;;;17.17;29.78;99373.48;105694;1254;71702;-69
2023/04/22 11:05:34;;;;;;;;;;;;;;;17.22;29.67;99374.84;105773;1259;61267;-71
2023/04/22 11:08:22;;;;;;;;;;;;;;;17.24;29.44;99372.90;105632;1259;61159;-78
2023/04/22 11:10:50;;;;;;;;;;;;;;;17.39;29.50;99372.02;105802;1260;75473;-74
2023/04/22 11:13:20;;;;;;;;;;;;;;;17.58;29.73;99369.21;105786;1256;68647;-75
2023/04/22 11:15:48;;;;;;;;;;;;;;;17.82;29.38;99372.95;105840;1256;72620;-77
2023/04/22 11:18:24;;;;;;;;;;;;;;;17.97;28.19;99366.20;105814;1259;61221;-76
2023/04/22 11:20:52;;;;;;;;;;;;;;;18.02;28.58;99373.77;105747;1256;61264;-75
2023/04/22 11:23:24;;;;;;;;;;;;;;;18.02;28.30;99371.65;105802;1258;75817;-73
2023/04/22 11:25:53;;;;;;;;;;;;;;;17.94;28.22;99376.13;105728;1261;68034;-74
2023/04/22 11:28:21;;;;;;;;;;;;;;;17.88;28.67;99380.88;105844;1256;74248;-72
2023/04/22 11:30:50;;;;;;;;;;;;;;;17.89;28.62;99382.38;105776;1256;61315;-75
2023/04/22 11:33:18;;;;;;;;;;;;;;;17.90;28.45;99383.98;105635;1261;61982;-77
2023/04/22 11:35:47;;;;;;;;;;;;;;;17.89;28.58;99389.38;105683;1260;76142;-73
2023/04/22 11:38:15;;;;;;;;;;;;;;;17.89;28.46;99389.33;105759;1256;68988;-74
2023/04/22 11:40:44;;;;;;;;;;;;;;;17.86;28.43;99385.55;105643;1256;73939;-73
2023/04/22 11:43:14;;;;;;;;;;;;;;;17.81;28.57;99383.08;105557;1256;61933;-68
2023/04/22 11:45:43;;;;;;;;;;;;;;;17.80;29.16;99380.53;105780;1259;61794;-66
2023/04/22 11:48:11;;;;;;;;;;;;;;;17.79;29.12;99385.68;105298;1256;74812;-66
2023/04/22 11:50:39;;;;;;;;;;;;;;;17.75;29.05;99389.64;105351;1256;68052;-69
2023/04/22 11:53:17;;;;;;;;;;;;;;;17.69;28.96;99387.69;105404;1260;74268;-65
2023/04/22 11:55:46;;;;;;;;;;;;;;;17.66;29.21;99387.59;105161;1261;61264;-67
2023/04/22 11:58:19;;;;;;;;;;;;;;;17.68;29.57;99388.64;105484;1256;61296;-66
2023/04/22 12:00:48;;;;;;;;;;;;;;;17.70;29.75;99389.64;105323;1260;76161;-65
2023/04/22 12:03:20;;;;;;;;;;;;;;;17.68;29.24;99387.94;105562;1257;69815;-66
2023/04/22 12:05:52;;;;;;;;;;;;;;;17.69;29.08;99393.86;105382;1257;73286;-65
2023/04/22 12:08:21;;;;;;;;;;;;;;;17.63;28.62;99392.45;105376;1256;61662;-65
2023/04/22 12:10:55;;;;;;;;;;;;;;;17.56;29.16;99390.07;105413;1256;61491;-65
2023/04/22 12:13:24;;;;;;;;;;;;;;;17.56;29.20;99386.25;105139;1260;75237;-66
2023/04/22 12:15:54;;;;;;;;;;;;;;;17.55;29.43;99380.95;105334;1256;69398;-65
2023/04/22 12:18:31;;;;;;;;;;;;;;;17.53;29.42;99379.85;105404;1261;73657;-66
2023/04/22 12:21:01;;;;;;;;;;;;;;;17.47;29.56;99384.30;105279;1256;61952;-66
2023/04/22 12:23:30;;;;;;;;;;;;;;;17.47;30.01;99390.23;105358;1255;61239;-66
2023/04/22 12:25:58;;;;;;;;;;;;;;;17.51;30.08;99391.25;105369;1256;73337;-65
2023/04/22 12:28:28;;;;;;;;;;;;;;;17.50;30.06;99385.85;105389;1261;69133;-67
2023/04/22 12:30:58;;;;;;;;;;;;;;;17.49;30.19;99385.64;105145;1261;72181;-66
2023/04/22 12:33:26;;;;;;;;;;;;;;;17.48;30.29;99383.76;105271;1256;61263;-67
2023/04/22 12:35:54;;;;;;;;;;;;;;;17.49;30.60;99389.22;105165;1261;61497;-66
2023/04/22 12:38:22;;;;;;;;;;;;;;;17.53;30.48;99386.16;105110;1258;75299;-67
2023/04/22 12:40:50;;;;;;;;;;;;;;;17.53;30.65;99393.61;105338;1256;69585;-67
2023/04/22 12:43:20;;;;;;;;;;;;;;;17.53;30.78;99388.98;105216;1256;72627;-68
2023/04/22 12:45:49;;;;;;;;;;;;;;;17.54;30.79;99391.90;105100;1260;61341;-67
2023/04/22 12:48:17;;;;;;;;;;;;;;;17.56;30.63;99391.02;105218;1256;61273;-67
2023/04/22 12:50:45;;;;;;;;;;;;;;;17.59;30.56;99391.70;105260;1256;75336;-66
2023/04/22 12:53:13;;;;;;;;;;;;;;;17.60;30.45;99387.39;105091;1258;67979;-73